sensor_id;sensor_type;location;lat;lon;timestamp;temperature;humidity
33207;DHT22;19565;46.602;11.534;2022-12-04T00:01:26;6.60;99.90
33207;DHT22;19565;46.602;11.534;2022-12-04T00:03:56;6.60;99.90
33207;DHT22;19565;46.602;11.534;2022-12-04T00:06:26;6.60;99.90
33207;DHT22;19565;46.602;11.534;2022-12-04T00:08:55;6.60;99.90
33207;DHT22;19565;46.602;11.534;2022-12-04T00:11:25;6.60;99.90
33207;DHT22;19565;46.602;11.534;2022-12-04T00:13:56;6.60;99.90
33207;DHT22;19565;46.602;11.534;2022-12-04T00:16:33;6.60;99.90
33207;DHT22;19565;46.602;11.534;2022-12-04T00:19:02;6.70;99.90
33207;DHT22;19565;46.602;11.534;2022-12-04T00:21:31;6.70;99.90
33207;DHT22;19565;46.602;11.534;2022-12-04T00:23:59;6.50;99.90
33207;DHT22;19565;46.602;11.534;2022-12-04T00:26:27;6.30;99.90
33207;DHT22;19565;46.602;11.534;2022-12-04T00:28:58;6.10;99.90
33207;DHT22;19565;46.602;11.534;2022-12-04T00:31:28;6.20;99.90
33207;DHT22;19565;46.602;11.534;2022-12-04T00:33:57;6.30;99.90
33207;DHT22;19565;46.602;11.534;2022-12-04T00:36:27;6.30;99.90
33207;DHT22;19565;46.602;11.534;2022-12-04T00:38:57;6.40;99.90
33207;DHT22;19565;46.602;11.534;2022-12-04T00:41:29;6.50;99.90
33207;DHT22;19565;46.602;11.534;2022-12-04T00:44:00;6.50;99.90
33207;DHT22;19565;46.602;11.534;2022-12-04T00:46:28;6.60;99.90
33207;DHT22;19565;46.602;11.534;2022-12-04T00:48:56;6.60;99.90
33207;DHT22;19565;46.602;11.534;2022-12-04T00:51:28;6.50;99.90
33207;DHT22;19565;46.602;11.534;2022-12-04T00:53:56;6.60;99.90
33207;DHT22;19565;46.602;11.534;2022-12-04T00:56:25;6.60;99.90
33207;DHT22;19565;46.602;11.534;2022-12-04T00:58:56;6.60;99.90
33207;DHT22;19565;46.602;11.534;2022-12-04T01:01:27;6.60;99.90
33207;DHT22;19565;46.602;11.534;2022-12-04T01:03:55;6.60;99.90
33207;DHT22;19565;46.602;11.534;2022-12-04T01:06:25;6.40;99.90
33207;DHT22;19565;46.602;11.534;2022-12-04T01:08:55;6.40;99.90
33207;DHT22;19565;46.602;11.534;2022-12-04T01:11:25;6.50;99.90
33207;DHT22;19565;46.602;11.534;2022-12-04T01:13:53;6.60;99.90
33207;DHT22;19565;46.602;11.534;2022-12-04T01:16:24;6.60;99.90
33207;DHT22;19565;46.602;11.534;2022-12-04T01:18:54;6.60;99.90
33207;DHT22;19565;46.602;11.534;2022-12-04T01:21:23;6.50;99.90
33207;DHT22;19565;46.602;11.534;2022-12-04T01:23:51;6.40;99.90
33207;DHT22;19565;46.602;11.534;2022-12-04T01:26:19;6.50;99.90
33207;DHT22;19565;46.602;11.534;2022-12-04T01:28:47;6.50;99.90
33207;DHT22;19565;46.602;11.534;2022-12-04T01:31:18;6.50;99.90
33207;DHT22;19565;46.602;11.534;2022-12-04T01:33:46;6.20;99.90
33207;DHT22;19565;46.602;11.534;2022-12-04T01:36:17;6.20;99.90
33207;DHT22;19565;46.602;11.534;2022-12-04T01:38:46;6.20;99.90
33207;DHT22;19565;46.602;11.534;2022-12-04T01:41:16;6.30;99.90
33207;DHT22;19565;46.602;11.534;2022-12-04T01:44:08;6.30;99.90
33207;DHT22;19565;46.602;11.534;2022-12-04T01:46:36;6.20;99.90
33207;DHT22;19565;46.602;11.534;2022-12-04T01:49:05;6.20;99.90
33207;DHT22;19565;46.602;11.534;2022-12-04T01:51:39;6.20;99.90
33207;DHT22;19565;46.602;11.534;2022-12-04T01:54:10;6.10;99.90
33207;DHT22;19565;46.602;11.534;2022-12-04T01:56:44;6.00;99.90
33207;DHT22;19565;46.602;11.534;2022-12-04T01:59:16;6.00;99.90
33207;DHT22;19565;46.602;11.534;2022-12-04T02:01:51;6.00;99.90
33207;DHT22;19565;46.602;11.534;2022-12-04T02:04:20;6.00;99.90
33207;DHT22;19565;46.602;11.534;2022-12-04T02:06:50;5.90;99.90
33207;DHT22;19565;46.602;11.534;2022-12-04T02:09:18;6.00;99.90
33207;DHT22;19565;46.602;11.534;2022-12-04T02:11:56;6.00;99.90
33207;DHT22;19565;46.602;11.534;2022-12-04T02:14:35;6.00;99.90
33207;DHT22;19565;46.602;11.534;2022-12-04T02:17:11;6.10;99.90
33207;DHT22;19565;46.602;11.534;2022-12-04T02:25:53;6.10;99.90
33207;DHT22;19565;46.602;11.534;2022-12-04T02:28:29;6.10;99.90
33207;DHT22;19565;46.602;11.534;2022-12-04T02:31:02;6.10;99.90
33207;DHT22;19565;46.602;11.534;2022-12-04T02:33:36;6.20;99.90
33207;DHT22;19565;46.602;11.534;2022-12-04T02:36:10;6.10;99.90
33207;DHT22;19565;46.602;11.534;2022-12-04T02:38:41;6.00;99.90
33207;DHT22;19565;46.602;11.534;2022-12-04T02:41:13;5.90;99.90
33207;DHT22;19565;46.602;11.534;2022-12-04T02:43:47;5.90;99.90
33207;DHT22;19565;46.602;11.534;2022-12-04T02:46:19;5.90;99.90
33207;DHT22;19565;46.602;11.534;2022-12-04T02:48:50;5.90;99.90
33207;DHT22;19565;46.602;11.534;2022-12-04T02:51:21;5.80;99.90
33207;DHT22;19565;46.602;11.534;2022-12-04T02:53:52;5.80;99.90
33207;DHT22;19565;46.602;11.534;2022-12-04T02:56:24;5.90;99.90
33207;DHT22;19565;46.602;11.534;2022-12-04T02:58:57;6.00;99.90
33207;DHT22;19565;46.602;11.534;2022-12-04T03:01:30;6.20;99.90
33207;DHT22;19565;46.602;11.534;2022-12-04T03:04:02;6.20;99.90
33207;DHT22;19565;46.602;11.534;2022-12-04T03:06:35;6.30;99.90
33207;DHT22;19565;46.602;11.534;2022-12-04T03:09:08;6.30;99.90
33207;DHT22;19565;46.602;11.534;2022-12-04T03:11:39;6.30;99.90
33207;DHT22;19565;46.602;11.534;2022-12-04T03:14:13;6.30;99.90
33207;DHT22;19565;46.602;11.534;2022-12-04T03:16:45;6.30;99.90
33207;DHT22;19565;46.602;11.534;2022-12-04T03:19:19;6.30;99.90
33207;DHT22;19565;46.602;11.534;2022-12-04T03:21:51;6.20;99.90
33207;DHT22;19565;46.602;11.534;2022-12-04T03:24:24;6.20;99.90
33207;DHT22;19565;46.602;11.534;2022-12-04T03:26:58;6.20;99.90
33207;DHT22;19565;46.602;11.534;2022-12-04T03:29:34;6.20;99.90
33207;DHT22;19565;46.602;11.534;2022-12-04T03:32:09;6.20;99.90
33207;DHT22;19565;46.602;11.534;2022-12-04T03:34:45;6.20;99.90
33207;DHT22;19565;46.602;11.534;2022-12-04T03:37:17;6.20;99.90
33207;DHT22;19565;46.602;11.534;2022-12-04T03:39:59;6.20;99.90
33207;DHT22;19565;46.602;11.534;2022-12-04T03:42:32;6.20;99.90
33207;DHT22;19565;46.602;11.534;2022-12-04T03:45:08;6.00;99.90
33207;DHT22;19565;46.602;11.534;2022-12-04T03:47:41;5.90;99.90
33207;DHT22;19565;46.602;11.534;2022-12-04T03:50:15;6.00;99.90
33207;DHT22;19565;46.602;11.534;2022-12-04T03:52:49;6.10;99.90
33207;DHT22;19565;46.602;11.534;2022-12-04T03:55:23;6.10;99.90
33207;DHT22;19565;46.602;11.534;2022-12-04T03:57:57;6.10;99.90
33207;DHT22;19565;46.602;11.534;2022-12-04T04:00:29;6.10;99.90
33207;DHT22;19565;46.602;11.534;2022-12-04T04:03:04;6.10;99.90
33207;DHT22;19565;46.602;11.534;2022-12-04T04:05:35;6.10;99.90
33207;DHT22;19565;46.602;11.534;2022-12-04T04:08:06;6.00;99.90
33207;DHT22;19565;46.602;11.534;2022-12-04T04:11:01;6.00;99.90
33207;DHT22;19565;46.602;11.534;2022-12-04T04:13:33;6.10;99.90
33207;DHT22;19565;46.602;11.534;2022-12-04T04:16:23;6.10;99.90
33207;DHT22;19565;46.602;11.534;2022-12-04T04:19:12;6.10;99.90
33207;DHT22;19565;46.602;11.534;2022-12-04T04:22:03;6.10;99.90
33207;DHT22;19565;46.602;11.534;2022-12-04T04:24:52;6.10;99.90
33207;DHT22;19565;46.602;11.534;2022-12-04T04:27:21;5.80;99.90
33207;DHT22;19565;46.602;11.534;2022-12-04T04:29:50;5.70;99.90
33207;DHT22;19565;46.602;11.534;2022-12-04T04:32:27;5.60;99.90
33207;DHT22;19565;46.602;11.534;2022-12-04T04:35:02;5.40;99.90
33207;DHT22;19565;46.602;11.534;2022-12-04T04:37:37;5.50;99.90
33207;DHT22;19565;46.602;11.534;2022-12-04T04:40:12;5.50;99.90
33207;DHT22;19565;46.602;11.534;2022-12-04T04:42:44;5.50;99.90
33207;DHT22;19565;46.602;11.534;2022-12-04T04:45:20;5.60;99.90
33207;DHT22;19565;46.602;11.534;2022-12-04T04:47:53;5.50;99.90
33207;DHT22;19565;46.602;11.534;2022-12-04T04:50:22;5.70;99.90
33207;DHT22;19565;46.602;11.534;2022-12-04T04:52:55;5.70;99.90
33207;DHT22;19565;46.602;11.534;2022-12-04T04:55:26;5.60;99.90
33207;DHT22;19565;46.602;11.534;2022-12-04T04:58:05;5.70;99.90
33207;DHT22;19565;46.602;11.534;2022-12-04T05:00:33;5.80;99.90
33207;DHT22;19565;46.602;11.534;2022-12-04T05:03:03;5.90;99.90
33207;DHT22;19565;46.602;11.534;2022-12-04T05:05:31;6.00;99.90
33207;DHT22;19565;46.602;11.534;2022-12-04T05:07:59;6.00;99.90
33207;DHT22;19565;46.602;11.534;2022-12-04T05:10:27;6.00;99.90
33207;DHT22;19565;46.602;11.534;2022-12-04T05:12:55;6.00;99.90
33207;DHT22;19565;46.602;11.534;2022-12-04T05:15:23;6.00;99.90
33207;DHT22;19565;46.602;11.534;2022-12-04T05:17:54;6.10;99.90
33207;DHT22;19565;46.602;11.534;2022-12-04T05:20:24;6.00;99.90
33207;DHT22;19565;46.602;11.534;2022-12-04T05:22:53;5.80;99.90
33207;DHT22;19565;46.602;11.534;2022-12-04T05:25:21;5.80;99.90
33207;DHT22;19565;46.602;11.534;2022-12-04T05:27:49;5.90;99.90
33207;DHT22;19565;46.602;11.534;2022-12-04T05:30:17;5.90;99.90
33207;DHT22;19565;46.602;11.534;2022-12-04T05:32:45;5.90;99.90
33207;DHT22;19565;46.602;11.534;2022-12-04T05:35:13;5.80;99.90
33207;DHT22;19565;46.602;11.534;2022-12-04T05:37:43;5.70;99.90
33207;DHT22;19565;46.602;11.534;2022-12-04T05:40:12;5.70;99.90
33207;DHT22;19565;46.602;11.534;2022-12-04T05:42:40;5.70;99.90
33207;DHT22;19565;46.602;11.534;2022-12-04T05:45:09;5.90;99.90
33207;DHT22;19565;46.602;11.534;2022-12-04T05:47:37;5.90;99.90
33207;DHT22;19565;46.602;11.534;2022-12-04T05:50:07;6.00;99.90
33207;DHT22;19565;46.602;11.534;2022-12-04T05:52:36;6.00;99.90
33207;DHT22;19565;46.602;11.534;2022-12-04T05:55:05;6.10;99.90
33207;DHT22;19565;46.602;11.534;2022-12-04T05:57:34;6.10;99.90
33207;DHT22;19565;46.602;11.534;2022-12-04T06:00:03;6.10;99.90
33207;DHT22;19565;46.602;11.534;2022-12-04T06:02:33;6.00;99.90
33207;DHT22;19565;46.602;11.534;2022-12-04T06:05:01;6.00;99.90
33207;DHT22;19565;46.602;11.534;2022-12-04T06:07:29;6.00;99.90
33207;DHT22;19565;46.602;11.534;2022-12-04T06:09:57;5.90;99.90
33207;DHT22;19565;46.602;11.534;2022-12-04T06:12:28;6.00;99.90
33207;DHT22;19565;46.602;11.534;2022-12-04T06:14:56;6.00;99.90
33207;DHT22;19565;46.602;11.534;2022-12-04T06:17:24;6.00;99.90
33207;DHT22;19565;46.602;11.534;2022-12-04T06:19:52;6.00;99.90
33207;DHT22;19565;46.602;11.534;2022-12-04T06:22:22;6.10;99.90
33207;DHT22;19565;46.602;11.534;2022-12-04T06:24:50;6.00;99.90
33207;DHT22;19565;46.602;11.534;2022-12-04T06:27:18;5.90;99.90
33207;DHT22;19565;46.602;11.534;2022-12-04T06:29:55;5.90;99.90
33207;DHT22;19565;46.602;11.534;2022-12-04T06:32:24;6.00;99.90
33207;DHT22;19565;46.602;11.534;2022-12-04T06:34:53;6.00;99.90
33207;DHT22;19565;46.602;11.534;2022-12-04T06:37:23;6.10;99.90
33207;DHT22;19565;46.602;11.534;2022-12-04T06:39:51;6.20;99.90
33207;DHT22;19565;46.602;11.534;2022-12-04T06:42:21;6.20;99.90
33207;DHT22;19565;46.602;11.534;2022-12-04T06:44:49;6.20;99.90
33207;DHT22;19565;46.602;11.534;2022-12-04T06:47:19;6.20;99.90
33207;DHT22;19565;46.602;11.534;2022-12-04T06:49:48;6.10;99.90
33207;DHT22;19565;46.602;11.534;2022-12-04T06:52:17;6.10;99.90
33207;DHT22;19565;46.602;11.534;2022-12-04T06:54:45;6.10;99.90
33207;DHT22;19565;46.602;11.534;2022-12-04T06:57:13;6.20;99.90
33207;DHT22;19565;46.602;11.534;2022-12-04T06:59:41;6.20;99.90
33207;DHT22;19565;46.602;11.534;2022-12-04T07:02:09;6.30;99.90
33207;DHT22;19565;46.602;11.534;2022-12-04T07:04:39;6.20;99.90
33207;DHT22;19565;46.602;11.534;2022-12-04T07:07:08;6.30;99.90
33207;DHT22;19565;46.602;11.534;2022-12-04T07:09:36;6.30;99.90
33207;DHT22;19565;46.602;11.534;2022-12-04T07:12:05;6.30;99.90
33207;DHT22;19565;46.602;11.534;2022-12-04T07:14:33;6.30;99.90
33207;DHT22;19565;46.602;11.534;2022-12-04T07:17:01;6.30;99.90
33207;DHT22;19565;46.602;11.534;2022-12-04T07:19:30;6.30;99.90
33207;DHT22;19565;46.602;11.534;2022-12-04T07:21:59;6.40;99.90
33207;DHT22;19565;46.602;11.534;2022-12-04T07:24:27;6.40;99.90
33207;DHT22;19565;46.602;11.534;2022-12-04T07:26:55;6.50;99.90
33207;DHT22;19565;46.602;11.534;2022-12-04T07:29:23;6.50;99.90
33207;DHT22;19565;46.602;11.534;2022-12-04T07:31:51;6.50;99.90
33207;DHT22;19565;46.602;11.534;2022-12-04T07:34:19;6.50;99.90
33207;DHT22;19565;46.602;11.534;2022-12-04T07:36:47;6.60;99.90
33207;DHT22;19565;46.602;11.534;2022-12-04T07:39:17;6.50;99.90
33207;DHT22;19565;46.602;11.534;2022-12-04T07:41:46;6.60;99.90
33207;DHT22;19565;46.602;11.534;2022-12-04T07:44:22;6.60;99.90
33207;DHT22;19565;46.602;11.534;2022-12-04T07:46:50;6.60;99.90
33207;DHT22;19565;46.602;11.534;2022-12-04T07:49:18;6.70;99.90
33207;DHT22;19565;46.602;11.534;2022-12-04T07:51:47;6.70;99.90
33207;DHT22;19565;46.602;11.534;2022-12-04T07:54:14;6.70;99.90
33207;DHT22;19565;46.602;11.534;2022-12-04T07:56:44;6.80;99.90
33207;DHT22;19565;46.602;11.534;2022-12-04T07:59:12;6.80;99.90
33207;DHT22;19565;46.602;11.534;2022-12-04T08:01:40;6.80;99.90
33207;DHT22;19565;46.602;11.534;2022-12-04T08:04:09;6.60;99.90
33207;DHT22;19565;46.602;11.534;2022-12-04T08:06:38;6.70;99.90
33207;DHT22;19565;46.602;11.534;2022-12-04T08:09:07;6.70;99.90
33207;DHT22;19565;46.602;11.534;2022-12-04T08:11:36;6.80;99.90
33207;DHT22;19565;46.602;11.534;2022-12-04T08:14:06;6.80;99.90
33207;DHT22;19565;46.602;11.534;2022-12-04T08:16:35;6.90;99.90
33207;DHT22;19565;46.602;11.534;2022-12-04T08:19:03;6.90;99.90
33207;DHT22;19565;46.602;11.534;2022-12-04T08:21:32;6.90;99.90
33207;DHT22;19565;46.602;11.534;2022-12-04T08:24:00;7.00;99.90
33207;DHT22;19565;46.602;11.534;2022-12-04T08:26:29;7.00;99.90
33207;DHT22;19565;46.602;11.534;2022-12-04T08:28:59;6.90;99.90
33207;DHT22;19565;46.602;11.534;2022-12-04T08:31:31;7.00;99.90
33207;DHT22;19565;46.602;11.534;2022-12-04T08:34:01;6.90;99.90
33207;DHT22;19565;46.602;11.534;2022-12-04T08:36:30;6.90;99.90
33207;DHT22;19565;46.602;11.534;2022-12-04T08:38:58;6.90;99.90
33207;DHT22;19565;46.602;11.534;2022-12-04T08:41:27;6.90;99.90
33207;DHT22;19565;46.602;11.534;2022-12-04T08:43:55;6.90;99.90
33207;DHT22;19565;46.602;11.534;2022-12-04T08:46:25;6.90;99.90
33207;DHT22;19565;46.602;11.534;2022-12-04T08:48:55;6.90;99.90
33207;DHT22;19565;46.602;11.534;2022-12-04T08:51:25;6.90;99.90
33207;DHT22;19565;46.602;11.534;2022-12-04T08:53:54;7.00;99.90
33207;DHT22;19565;46.602;11.534;2022-12-04T08:56:24;7.00;99.90
33207;DHT22;19565;46.602;11.534;2022-12-04T08:58:53;6.90;99.90
33207;DHT22;19565;46.602;11.534;2022-12-04T09:01:22;6.90;99.90
33207;DHT22;19565;46.602;11.534;2022-12-04T09:03:51;7.00;99.90
33207;DHT22;19565;46.602;11.534;2022-12-04T09:06:22;7.00;99.90
33207;DHT22;19565;46.602;11.534;2022-12-04T09:08:52;7.10;99.90
33207;DHT22;19565;46.602;11.534;2022-12-04T09:11:22;7.10;99.90
33207;DHT22;19565;46.602;11.534;2022-12-04T09:13:51;7.10;99.90
33207;DHT22;19565;46.602;11.534;2022-12-04T09:16:22;7.20;99.90
33207;DHT22;19565;46.602;11.534;2022-12-04T09:18:50;7.20;99.90
33207;DHT22;19565;46.602;11.534;2022-12-04T09:21:21;7.20;99.90
33207;DHT22;19565;46.602;11.534;2022-12-04T09:23:50;7.20;99.90
33207;DHT22;19565;46.602;11.534;2022-12-04T09:26:20;7.20;99.90
33207;DHT22;19565;46.602;11.534;2022-12-04T09:28:49;7.20;99.90
33207;DHT22;19565;46.602;11.534;2022-12-04T09:31:18;7.20;99.90
33207;DHT22;19565;46.602;11.534;2022-12-04T09:33:47;7.20;99.90
33207;DHT22;19565;46.602;11.534;2022-12-04T09:36:15;7.20;99.90
33207;DHT22;19565;46.602;11.534;2022-12-04T09:38:46;7.10;99.90
33207;DHT22;19565;46.602;11.534;2022-12-04T09:41:37;7.10;99.90
33207;DHT22;19565;46.602;11.534;2022-12-04T09:44:14;7.20;99.90
33207;DHT22;19565;46.602;11.534;2022-12-04T09:46:48;7.20;99.90
33207;DHT22;19565;46.602;11.534;2022-12-04T09:49:21;7.20;99.90
33207;DHT22;19565;46.602;11.534;2022-12-04T09:51:52;7.10;99.90
33207;DHT22;19565;46.602;11.534;2022-12-04T09:54:25;7.10;99.90
33207;DHT22;19565;46.602;11.534;2022-12-04T09:57:00;7.10;99.90
33207;DHT22;19565;46.602;11.534;2022-12-04T09:59:31;7.10;99.90
33207;DHT22;19565;46.602;11.534;2022-12-04T10:02:02;7.10;99.90
33207;DHT22;19565;46.602;11.534;2022-12-04T10:04:37;7.10;99.90
33207;DHT22;19565;46.602;11.534;2022-12-04T10:07:11;7.10;99.90
33207;DHT22;19565;46.602;11.534;2022-12-04T10:09:49;7.00;99.90
33207;DHT22;19565;46.602;11.534;2022-12-04T10:12:25;7.10;99.90
33207;DHT22;19565;46.602;11.534;2022-12-04T10:15:12;7.10;99.90
33207;DHT22;19565;46.602;11.534;2022-12-04T10:17:54;7.10;99.90
33207;DHT22;19565;46.602;11.534;2022-12-04T10:20:41;7.10;99.90
33207;DHT22;19565;46.602;11.534;2022-12-04T10:23:18;7.10;99.90
33207;DHT22;19565;46.602;11.534;2022-12-04T10:25:53;7.10;99.90
33207;DHT22;19565;46.602;11.534;2022-12-04T10:28:26;7.10;99.90
33207;DHT22;19565;46.602;11.534;2022-12-04T10:30:59;7.10;99.90
33207;DHT22;19565;46.602;11.534;2022-12-04T10:33:34;7.10;99.90
33207;DHT22;19565;46.602;11.534;2022-12-04T10:36:03;7.20;99.90
33207;DHT22;19565;46.602;11.534;2022-12-04T10:38:36;7.20;99.90
33207;DHT22;19565;46.602;11.534;2022-12-04T10:41:14;7.20;99.90
33207;DHT22;19565;46.602;11.534;2022-12-04T10:43:46;7.20;99.90
33207;DHT22;19565;46.602;11.534;2022-12-04T10:46:17;7.20;99.90
33207;DHT22;19565;46.602;11.534;2022-12-04T10:48:48;7.30;99.90
33207;DHT22;19565;46.602;11.534;2022-12-04T10:51:18;7.20;99.90
33207;DHT22;19565;46.602;11.534;2022-12-04T10:53:49;7.10;99.90
33207;DHT22;19565;46.602;11.534;2022-12-04T10:56:21;7.00;99.90
33207;DHT22;19565;46.602;11.534;2022-12-04T10:58:57;6.90;99.90
33207;DHT22;19565;46.602;11.534;2022-12-04T11:01:27;7.00;99.90
33207;DHT22;19565;46.602;11.534;2022-12-04T11:03:59;7.10;99.90
33207;DHT22;19565;46.602;11.534;2022-12-04T11:06:29;7.10;99.90
33207;DHT22;19565;46.602;11.534;2022-12-04T11:08:58;7.20;99.90
33207;DHT22;19565;46.602;11.534;2022-12-04T11:11:29;7.30;99.90
33207;DHT22;19565;46.602;11.534;2022-12-04T11:14:03;7.30;99.90
33207;DHT22;19565;46.602;11.534;2022-12-04T11:16:38;7.40;99.90
33207;DHT22;19565;46.602;11.534;2022-12-04T11:19:23;7.50;99.90
33207;DHT22;19565;46.602;11.534;2022-12-04T11:21:53;7.50;99.90
33207;DHT22;19565;46.602;11.534;2022-12-04T11:24:24;7.60;99.90
33207;DHT22;19565;46.602;11.534;2022-12-04T11:26:55;7.60;99.90
33207;DHT22;19565;46.602;11.534;2022-12-04T11:29:30;7.60;99.90
33207;DHT22;19565;46.602;11.534;2022-12-04T11:31:59;7.60;99.90
33207;DHT22;19565;46.602;11.534;2022-12-04T11:34:35;7.60;99.90
33207;DHT22;19565;46.602;11.534;2022-12-04T11:37:12;7.60;99.90
33207;DHT22;19565;46.602;11.534;2022-12-04T11:39:45;7.60;99.90
33207;DHT22;19565;46.602;11.534;2022-12-04T11:42:22;7.50;99.90
33207;DHT22;19565;46.602;11.534;2022-12-04T11:44:55;7.50;99.90
33207;DHT22;19565;46.602;11.534;2022-12-04T11:47:26;7.50;99.90
33207;DHT22;19565;46.602;11.534;2022-12-04T11:50:05;7.50;99.90
33207;DHT22;19565;46.602;11.534;2022-12-04T11:52:50;7.50;99.90
33207;DHT22;19565;46.602;11.534;2022-12-04T11:55:31;7.60;99.90
33207;DHT22;19565;46.602;11.534;2022-12-04T11:58:17;7.50;99.90
33207;DHT22;19565;46.602;11.534;2022-12-04T12:00:54;7.60;99.90
33207;DHT22;19565;46.602;11.534;2022-12-04T12:03:31;7.60;99.90
33207;DHT22;19565;46.602;11.534;2022-12-04T12:06:18;7.50;99.90
33207;DHT22;19565;46.602;11.534;2022-12-04T12:09:08;7.50;99.90
33207;DHT22;19565;46.602;11.534;2022-12-04T12:11:43;7.50;99.90
33207;DHT22;19565;46.602;11.534;2022-12-04T12:14:19;7.50;99.90
33207;DHT22;19565;46.602;11.534;2022-12-04T12:16:57;7.50;99.90
33207;DHT22;19565;46.602;11.534;2022-12-04T12:19:39;7.50;99.90
33207;DHT22;19565;46.602;11.534;2022-12-04T12:22:19;7.50;99.90
33207;DHT22;19565;46.602;11.534;2022-12-04T12:24:57;7.50;99.90
33207;DHT22;19565;46.602;11.534;2022-12-04T12:27:40;7.50;99.90
33207;DHT22;19565;46.602;11.534;2022-12-04T12:30:15;7.60;99.90
33207;DHT22;19565;46.602;11.534;2022-12-04T12:33:00;7.60;99.90
33207;DHT22;19565;46.602;11.534;2022-12-04T12:35:32;7.60;99.90
33207;DHT22;19565;46.602;11.534;2022-12-04T12:38:02;7.70;99.90
33207;DHT22;19565;46.602;11.534;2022-12-04T12:40:35;7.70;99.90
33207;DHT22;19565;46.602;11.534;2022-12-04T12:43:06;7.80;99.90
33207;DHT22;19565;46.602;11.534;2022-12-04T12:45:44;7.80;99.90
33207;DHT22;19565;46.602;11.534;2022-12-04T12:48:24;7.90;99.90
33207;DHT22;19565;46.602;11.534;2022-12-04T12:50:56;7.90;99.90
33207;DHT22;19565;46.602;11.534;2022-12-04T12:53:48;7.90;99.90
33207;DHT22;19565;46.602;11.534;2022-12-04T12:56:24;8.00;99.90
33207;DHT22;19565;46.602;11.534;2022-12-04T12:58:59;8.00;99.90
33207;DHT22;19565;46.602;11.534;2022-12-04T13:01:39;8.00;99.90
33207;DHT22;19565;46.602;11.534;2022-12-04T13:04:13;8.00;99.90
33207;DHT22;19565;46.602;11.534;2022-12-04T13:06:44;8.00;99.90
33207;DHT22;19565;46.602;11.534;2022-12-04T13:09:17;8.00;99.90
33207;DHT22;19565;46.602;11.534;2022-12-04T13:11:48;8.10;99.90
33207;DHT22;19565;46.602;11.534;2022-12-04T13:14:18;8.10;99.90
33207;DHT22;19565;46.602;11.534;2022-12-04T13:16:50;8.10;99.90
33207;DHT22;19565;46.602;11.534;2022-12-04T13:19:22;8.10;99.90
33207;DHT22;19565;46.602;11.534;2022-12-04T13:21:58;8.10;99.90
33207;DHT22;19565;46.602;11.534;2022-12-04T13:27:31;8.20;99.90
33207;DHT22;19565;46.602;11.534;2022-12-04T13:30:12;8.20;99.90
33207;DHT22;19565;46.602;11.534;2022-12-04T13:33:14;8.20;99.90
33207;DHT22;19565;46.602;11.534;2022-12-04T13:35:55;8.10;99.90
33207;DHT22;19565;46.602;11.534;2022-12-04T13:38:34;8.00;99.90
33207;DHT22;19565;46.602;11.534;2022-12-04T13:41:09;8.00;99.90
33207;DHT22;19565;46.602;11.534;2022-12-04T13:43:44;8.00;99.90
33207;DHT22;19565;46.602;11.534;2022-12-04T13:46:27;7.90;99.90
33207;DHT22;19565;46.602;11.534;2022-12-04T13:49:09;7.90;99.90
33207;DHT22;19565;46.602;11.534;2022-12-04T13:51:49;8.00;99.90
33207;DHT22;19565;46.602;11.534;2022-12-04T13:54:24;8.00;99.90
33207;DHT22;19565;46.602;11.534;2022-12-04T13:56:54;8.00;99.90
33207;DHT22;19565;46.602;11.534;2022-12-04T13:59:33;8.00;99.90
33207;DHT22;19565;46.602;11.534;2022-12-04T14:02:16;7.90;99.90
33207;DHT22;19565;46.602;11.534;2022-12-04T14:04:52;7.90;99.90
33207;DHT22;19565;46.602;11.534;2022-12-04T14:07:25;7.90;99.90
33207;DHT22;19565;46.602;11.534;2022-12-04T14:09:55;7.80;99.90
33207;DHT22;19565;46.602;11.534;2022-12-04T14:12:27;7.80;99.90
33207;DHT22;19565;46.602;11.534;2022-12-04T14:14:58;7.70;99.90
33207;DHT22;19565;46.602;11.534;2022-12-04T14:17:28;7.70;99.90
33207;DHT22;19565;46.602;11.534;2022-12-04T14:20:02;7.70;99.90
33207;DHT22;19565;46.602;11.534;2022-12-04T14:22:41;7.70;99.90
33207;DHT22;19565;46.602;11.534;2022-12-04T14:25:34;7.80;99.90
33207;DHT22;19565;46.602;11.534;2022-12-04T14:28:40;7.80;99.90
33207;DHT22;19565;46.602;11.534;2022-12-04T14:31:17;7.80;99.90
33207;DHT22;19565;46.602;11.534;2022-12-04T14:33:49;7.70;99.90
33207;DHT22;19565;46.602;11.534;2022-12-04T14:36:23;7.70;99.90
33207;DHT22;19565;46.602;11.534;2022-12-04T14:39:09;7.70;99.90
33207;DHT22;19565;46.602;11.534;2022-12-04T14:41:38;7.60;99.90
33207;DHT22;19565;46.602;11.534;2022-12-04T14:44:24;7.70;99.90
33207;DHT22;19565;46.602;11.534;2022-12-04T14:46:56;7.70;99.90
33207;DHT22;19565;46.602;11.534;2022-12-04T14:49:36;7.60;99.90
33207;DHT22;19565;46.602;11.534;2022-12-04T14:52:13;7.60;99.90
33207;DHT22;19565;46.602;11.534;2022-12-04T14:54:50;7.60;99.90
33207;DHT22;19565;46.602;11.534;2022-12-04T14:57:34;7.60;99.90
33207;DHT22;19565;46.602;11.534;2022-12-04T15:00:14;7.60;99.90
33207;DHT22;19565;46.602;11.534;2022-12-04T15:02:43;7.60;99.90
33207;DHT22;19565;46.602;11.534;2022-12-04T15:05:17;7.60;99.90
33207;DHT22;19565;46.602;11.534;2022-12-04T15:07:49;7.60;99.90
33207;DHT22;19565;46.602;11.534;2022-12-04T15:10:22;7.70;99.90
33207;DHT22;19565;46.602;11.534;2022-12-04T15:13:08;7.70;99.90
33207;DHT22;19565;46.602;11.534;2022-12-04T15:15:42;7.60;99.90
33207;DHT22;19565;46.602;11.534;2022-12-04T15:18:12;7.60;99.90
33207;DHT22;19565;46.602;11.534;2022-12-04T15:20:53;7.60;99.90
33207;DHT22;19565;46.602;11.534;2022-12-04T15:23:27;7.70;99.90
33207;DHT22;19565;46.602;11.534;2022-12-04T15:25:57;7.70;99.90
33207;DHT22;19565;46.602;11.534;2022-12-04T15:28:29;7.70;99.90
33207;DHT22;19565;46.602;11.534;2022-12-04T15:31:00;7.70;99.90
33207;DHT22;19565;46.602;11.534;2022-12-04T15:33:32;7.70;99.90
33207;DHT22;19565;46.602;11.534;2022-12-04T15:36:13;7.70;99.90
33207;DHT22;19565;46.602;11.534;2022-12-04T15:38:48;7.70;99.90
33207;DHT22;19565;46.602;11.534;2022-12-04T15:41:29;7.70;99.90
33207;DHT22;19565;46.602;11.534;2022-12-04T15:43:59;7.60;99.90
33207;DHT22;19565;46.602;11.534;2022-12-04T15:46:31;7.60;99.90
33207;DHT22;19565;46.602;11.534;2022-12-04T15:49:15;7.60;99.90
33207;DHT22;19565;46.602;11.534;2022-12-04T15:51:44;7.60;99.90
33207;DHT22;19565;46.602;11.534;2022-12-04T15:54:22;7.60;99.90
33207;DHT22;19565;46.602;11.534;2022-12-04T15:56:59;7.60;99.90
33207;DHT22;19565;46.602;11.534;2022-12-04T15:59:29;7.60;99.90
33207;DHT22;19565;46.602;11.534;2022-12-04T16:02:06;7.60;99.90
33207;DHT22;19565;46.602;11.534;2022-12-04T16:04:36;7.60;99.90
33207;DHT22;19565;46.602;11.534;2022-12-04T16:07:19;7.50;99.90
33207;DHT22;19565;46.602;11.534;2022-12-04T16:09:55;7.60;99.90
33207;DHT22;19565;46.602;11.534;2022-12-04T16:12:30;7.50;99.90
33207;DHT22;19565;46.602;11.534;2022-12-04T16:14:58;7.50;99.90